Time;durP1;ratioP1;P1;durP2;ratioP2;P2;SDS_P1;SDS_P2;PMS_P1;PMS_P2;Temp;Humidity;BMP_temperature;BMP_pressure;BME280_temperature;BME280_humidity;BME280_pressure;Samples;Min_cycle;Max_cycle;Signal;HPM_P1;HPM_P2
2022/09/16 00:00:20;;;;;;;6.47;4.50;;;;;;;23.09;68.16;99705.34;5050398;28;20029;-67
2022/09/16 00:02:46;;;;;;;8.48;5.00;;;;;;;22.86;67.96;99675.25;5051381;28;20048;-64
2022/09/16 00:05:12;;;;;;;10.50;4.90;;;;;;;22.76;68.13;99671.16;5051560;28;20476;-64
2022/09/16 00:07:37;;;;;;;6.78;4.95;;;;;;;22.90;68.65;99708.50;5051411;28;20151;-71
2022/09/16 00:10:04;;;;;;;9.63;5.07;;;;;;;22.92;68.83;99713.72;5051807;28;20033;-64
2022/09/16 00:12:30;;;;;;;5.65;4.47;;;;;;;22.49;69.19;99644.63;5050852;28;20449;-64
2022/09/16 00:14:55;;;;;;;7.00;5.10;;;;;;;22.69;68.94;99675.72;5051301;28;20040;-69
2022/09/16 00:17:21;;;;;;;9.68;4.90;;;;;;;22.86;68.94;99706.00;5051434;28;20029;-70
2022/09/16 00:19:49;;;;;;;7.03;4.93;;;;;;;22.78;69.10;99690.41;5050891;28;20484;-67
2022/09/16 00:24:50;;;;;;;10.57;4.75;;;;;;;22.83;68.72;99708.69;5176672;22;20048;-65
2022/09/16 00:27:15;;;;;;;6.95;4.75;;;;;;;22.82;69.08;99699.06;5050397;28;20033;-68
2022/09/16 00:29:41;;;;;;;8.93;5.28;;;;;;;22.84;68.79;99700.78;5033718;28;20029;-66
2022/09/16 00:32:06;;;;;;;7.10;4.72;;;;;;;22.87;68.52;99708.56;5043891;28;20554;-66
2022/09/16 00:34:32;;;;;;;10.13;5.45;;;;;;;22.83;68.65;99706.94;5062774;28;20052;-67
2022/09/16 00:36:57;;;;;;;9.10;5.30;;;;;;;22.80;69.38;99708.78;5076448;28;20509;-67
2022/09/16 00:39:23;;;;;;;7.78;5.43;;;;;;;22.56;69.32;99675.16;5066708;28;20034;-70
2022/09/16 00:41:48;;;;;;;8.60;5.30;;;;;;;22.72;69.22;99706.34;5070484;28;20533;-67
2022/09/16 00:44:51;;;;;;;7.53;5.05;;;;;;;22.73;68.83;99702.78;5070738;28;20083;-67
2022/09/16 00:47:30;;;;;;;10.63;5.13;;;;;;;22.78;68.98;99714.09;5052797;28;20507;-72
2022/09/16 00:50:01;;;;;;;5.97;5.03;;;;;;;22.71;68.97;99728.31;5070438;28;20024;-71
2022/09/16 00:52:29;;;;;;;9.95;5.13;;;;;;;22.60;69.68;99720.66;5070826;28;20035;-73
2022/09/16 00:54:54;;;;;;;9.00;5.40;;;;;;;22.55;69.51;99718.13;5071024;28;20079;-68
2022/09/16 00:57:20;;;;;;;7.50;5.25;;;;;;;22.47;69.36;99714.84;5070741;28;20072;-68
2022/09/16 00:59:51;;;;;;;7.45;4.97;;;;;;;22.21;69.71;99687.38;5070919;28;20466;-70
2022/09/16 01:02:19;;;;;;;8.60;4.95;;;;;;;22.43;69.59;99714.06;5062766;28;20116;-71
2022/09/16 01:05:20;;;;;;;7.03;5.22;;;;;;;22.39;70.31;99707.16;5065047;28;20115;-71
2022/09/16 01:07:50;;;;;;;9.10;4.88;;;;;;;22.34;69.50;99716.84;4986753;28;20041;-71
2022/09/16 01:10:18;;;;;;;8.70;5.32;;;;;;;22.34;68.88;99698.44;4970653;28;20034;-71
2022/09/16 01:12:48;;;;;;;5.90;4.90;;;;;;;22.22;69.08;99685.59;4988857;28;20031;-75
2022/09/16 01:15:16;;;;;;;11.07;4.93;;;;;;;22.40;69.05;99710.63;4988775;28;20030;-67
2022/09/16 01:18:10;;;;;;;8.88;5.45;;;;;;;22.39;68.74;99712.41;4988798;28;20047;-68
2022/09/16 01:20:38;;;;;;;7.13;4.95;;;;;;;22.33;69.24;99712.53;4988540;28;20157;-67
2022/09/16 01:23:31;;;;;;;9.45;5.40;;;;;;;22.33;69.16;99707.28;4988314;28;20061;-69
2022/09/16 01:26:11;;;;;;;9.02;5.00;;;;;;;22.27;69.13;99707.41;4988460;28;20058;-68
2022/09/16 01:28:55;;;;;;;8.70;5.40;;;;;;;22.19;69.60;99719.84;4988514;28;20138;-68
2022/09/16 01:31:21;;;;;;;7.20;5.13;;;;;;;22.23;69.30;99726.75;4979618;28;20038;-71
2022/09/16 01:34:24;;;;;;;8.98;5.10;;;;;;;22.27;69.65;99728.44;4975585;28;20082;-67
2022/09/16 01:37:18;;;;;;;8.57;5.45;;;;;;;22.25;69.49;99727.59;4892909;29;20416;-72
2022/09/16 01:40:07;;;;;;;9.18;5.38;;;;;;;22.27;69.76;99731.94;4892799;29;20040;-68
2022/09/16 01:43:02;;;;;;;7.53;5.15;;;;;;;22.27;69.92;99736.34;4904802;28;20074;-68
2022/09/16 01:45:54;;;;;;;8.77;5.70;;;;;;;22.25;70.37;99728.47;4968999;28;20050;-70
2022/09/16 01:48:42;;;;;;;7.90;4.82;;;;;;;22.25;69.92;99731.09;4930374;29;20043;-68
2022/09/16 01:51:07;;;;;;;5.72;4.90;;;;;;;22.23;69.20;99739.91;4932632;29;20079;-67
2022/09/16 01:53:35;;;;;;;10.73;5.45;;;;;;;22.20;70.64;99737.38;4932921;29;20518;-67
2022/09/16 01:56:45;;;;;;;6.35;5.43;;;;;;;22.16;70.71;99746.19;4934433;29;20063;-68
2022/09/16 01:59:36;;;;;;;9.02;5.22;;;;;;;22.09;71.26;99746.38;4915356;29;20123;-67
2022/09/16 02:02:12;;;;;;;6.85;5.15;;;;;;;21.99;70.98;99710.66;4914508;29;20071;-68
2022/09/16 02:04:49;;;;;;;7.22;5.63;;;;;;;22.24;70.92;99737.28;4915424;29;20439;-68
2022/09/16 02:07:19;;;;;;;7.38;5.30;;;;;;;22.11;70.70;99728.78;4915185;29;20048;-70
2022/09/16 02:09:50;;;;;;;9.68;5.47;;;;;;;22.14;71.09;99738.34;4917930;29;20082;-66
2022/09/16 02:12:22;;;;;;;7.43;5.35;;;;;;;22.18;71.03;99749.66;4953363;28;20039;-70
2022/09/16 02:14:50;;;;;;;8.63;5.80;;;;;;;22.13;71.32;99747.13;4953179;29;20035;-70
2022/09/16 02:17:19;;;;;;;10.68;5.30;;;;;;;21.99;70.91;99736.94;4953154;29;20031;-70
2022/09/16 02:19:51;;;;;;;7.53;5.50;;;;;;;22.01;71.18;99744.78;4953066;29;20662;-68
2022/09/16 02:22:22;;;;;;;11.63;5.45;;;;;;;22.03;70.86;99749.13;4953085;29;20073;-71
2022/09/16 02:24:49;;;;;;;10.50;5.57;;;;;;;22.00;70.82;99740.44;4966948;28;20146;-67
2022/09/16 02:27:18;;;;;;;9.02;5.55;;;;;;;21.97;70.53;99746.63;4991662;28;20181;-67
2022/09/16 02:30:04;;;;;;;7.75;5.72;;;;;;;21.81;71.09;99752.19;4991748;28;20045;-70
2022/09/16 02:32:34;;;;;;;9.00;5.78;;;;;;;21.74;71.24;99749.75;5003810;28;20041;-71
2022/09/16 02:35:00;;;;;;;;;;;;;;;21.69;71.34;99747.19;5015094;28;20046;-70
2022/09/16 02:37:35;;;;;;;9.40;5.90;;;;;;;21.69;71.15;99746.34;5033250;28;19963;-68
2022/09/16 02:40:06;;;;;;;12.52;5.68;;;;;;;21.67;70.86;99750.75;5033616;28;20018;-68
2022/09/16 02:42:32;;;;;;;9.98;5.72;;;;;;;21.67;71.18;99754.25;5031992;28;20521;-68
2022/09/16 02:44:59;;;;;;;13.15;6.05;;;;;;;21.58;71.10;99741.28;5033234;28;20411;-68
2022/09/16 02:47:36;;;;;;;7.20;5.35;;;;;;;21.56;71.31;99735.19;5051963;28;20033;-73
2022/09/16 02:50:17;;;;;;;7.75;5.65;;;;;;;21.60;72.06;99745.63;5053186;28;20094;-69
2022/09/16 02:52:54;;;;;;;9.55;6.15;;;;;;;21.55;71.79;99754.47;5052829;28;20029;-69
2022/09/16 02:55:41;;;;;;;7.25;5.65;;;;;;;21.46;72.03;99759.00;5053148;28;20020;-68
2022/09/16 02:58:08;;;;;;;8.48;5.88;;;;;;;21.30;73.02;99761.03;5053016;28;20032;-72
2022/09/16 03:00:38;;;;;;;9.43;5.88;;;;;;;21.36;72.67;99759.19;5051152;28;20024;-71
2022/09/16 03:03:03;;;;;;;;;;;;;;;21.36;72.32;99749.56;5051890;28;20119;-68
2022/09/16 03:05:29;;;;;;;8.73;5.45;;;;;;;21.38;71.83;99750.41;5052547;28;20409;-70
2022/09/16 03:07:56;;;;;;;6.90;5.63;;;;;;;21.39;72.43;99765.25;5068357;28;20035;-70
2022/09/16 03:10:27;;;;;;;8.90;6.13;;;;;;;21.21;73.47;99774.34;5052657;28;20111;-70
2022/09/16 03:13:01;;;;;;;6.10;5.50;;;;;;;20.96;73.12;99745.03;5033694;28;20091;-71
2022/09/16 03:15:47;;;;;;;10.50;6.03;;;;;;;21.10;73.81;99774.53;5052045;28;20033;-67
2022/09/16 03:18:37;;;;;;;8.85;5.72;;;;;;;21.09;73.66;99758.81;5052838;28;20032;-73
2022/09/16 03:21:29;;;;;;;11.00;5.70;;;;;;;21.15;73.51;99764.81;5052741;28;20025;-68
2022/09/16 03:24:00;;;;;;;10.93;6.22;;;;;;;21.19;73.03;99759.53;5010094;28;20188;-70
2022/09/16 03:26:26;;;;;;;9.45;5.90;;;;;;;21.17;72.88;99764.78;5009932;28;20085;-70
2022/09/16 03:29:03;;;;;;;11.25;6.15;;;;;;;21.04;73.58;99735.28;5010308;28;20056;-67
2022/09/16 03:31:31;;;;;;;12.95;5.82;;;;;;;21.21;73.83;99770.84;5010217;28;20030;-68
2022/09/16 03:34:25;;;;;;;10.48;6.43;;;;;;;21.16;73.81;99776.19;5010384;28;20034;-70
2022/09/16 03:36:57;;;;;;;8.48;5.78;;;;;;;21.10;73.82;99776.31;4951603;29;20051;-74
2022/09/16 03:39:22;;;;;;;8.15;6.10;;;;;;;21.09;73.39;99775.44;4951792;29;20654;-70
2022/09/16 03:41:48;;;;;;;9.75;6.03;;;;;;;21.09;73.90;99783.31;4951687;29;20043;-67
2022/09/16 03:44:13;;;;;;;12.10;5.68;;;;;;;21.03;74.54;99772.06;4951504;29;20528;-69
2022/09/16 03:46:39;;;;;;;12.40;6.88;;;;;;;20.78;75.79;99775.09;4951419;29;20028;-70
2022/09/16 03:49:04;;;;;;;12.13;6.18;;;;;;;20.78;76.37;99770.69;4951703;29;20072;-75
2022/09/16 03:51:30;;;;;;;10.55;6.88;;;;;;;20.76;76.14;99756.75;4951786;29;20031;-68
2022/09/16 03:53:55;;;;;;;9.15;6.15;;;;;;;20.84;76.64;99769.75;4951465;29;20043;-68
2022/09/16 03:56:23;;;;;;;9.77;5.78;;;;;;;20.88;75.53;99766.16;4951465;29;20148;-68
2022/09/16 03:58:48;;;;;;;16.95;6.07;;;;;;;20.93;75.42;99766.09;4951306;29;20114;-69
2022/09/16 04:01:14;;;;;;;8.95;5.82;;;;;;;20.97;75.61;99770.38;4951239;29;20142;-73
2022/09/16 04:03:40;;;;;;;10.43;6.28;;;;;;;20.92;75.87;99759.09;4951041;29;20147;-70
2022/09/16 04:06:06;;;;;;;10.45;5.78;;;;;;;20.85;75.40;99742.63;4949842;29;20041;-70
2022/09/16 04:08:32;;;;;;;9.95;6.00;;;;;;;21.01;75.06;99767.69;4951088;29;20043;-71
2022/09/16 04:11:00;;;;;;;10.65;5.95;;;;;;;20.92;75.99;99780.09;4950999;29;20636;-72
2022/09/16 04:13:29;;;;;;;8.48;6.38;;;;;;;20.90;75.63;99781.88;4984892;28;20465;-72
2022/09/16 04:15:54;;;;;;;8.85;6.25;;;;;;;20.94;74.62;99779.19;5050184;28;20161;-71
2022/09/16 04:18:20;;;;;;;8.50;5.63;;;;;;;20.91;73.27;99768.75;5050991;28;20498;-72
2022/09/16 04:20:45;;;;;;;11.68;6.28;;;;;;;20.88;73.08;99774.03;5051457;28;20380;-72
2022/09/16 04:23:11;;;;;;;8.85;5.95;;;;;;;20.87;73.85;99780.16;5051142;28;20057;-73
2022/09/16 04:25:36;;;;;;;9.68;6.15;;;;;;;20.80;74.61;99763.66;5064386;28;20418;-71
2022/09/16 04:28:02;;;;;;;7.85;5.32;;;;;;;20.83;73.59;99775.88;5050040;28;20068;-71
2022/09/16 04:30:28;;;;;;;9.23;5.80;;;;;;;20.78;72.89;99773.31;5050406;28;20383;-71
2022/09/16 04:32:54;;;;;;;8.68;5.88;;;;;;;20.80;72.70;99770.69;5051237;28;20044;-72
2022/09/16 04:35:19;;;;;;;8.20;5.18;;;;;;;20.86;73.25;99778.47;5050036;28;20025;-72
2022/09/16 04:37:45;;;;;;;12.18;5.53;;;;;;;20.76;72.73;99769.88;5048320;28;20490;-71
2022/09/16 04:40:11;;;;;;;12.18;4.70;;;;;;;20.67;72.48;99751.59;5051182;28;20063;-71
2022/09/16 04:42:36;;;;;;;10.90;5.60;;;;;;;20.72;73.52;99762.06;5050517;28;20063;-71
2022/09/16 04:45:02;;;;;;;10.32;5.50;;;;;;;20.74;73.52;99763.78;5049703;28;20094;-71
2022/09/16 04:47:28;;;;;;;7.30;4.82;;;;;;;20.71;72.81;99753.34;5050415;28;20025;-72
2022/09/16 04:49:53;;;;;;;9.50;5.28;;;;;;;20.83;73.81;99791.63;5049865;28;20052;-73
2022/09/16 04:52:19;;;;;;;8.70;5.15;;;;;;;20.80;74.22;99799.53;5050358;28;20029;-73
2022/09/16 04:54:44;;;;;;;9.20;5.38;;;;;;;20.81;73.30;99790.75;5049114;28;20063;-73
2022/09/16 04:57:10;;;;;;;9.60;5.53;;;;;;;20.90;73.25;99792.38;5050289;28;20100;-73
2022/09/16 04:59:35;;;;;;;12.00;6.00;;;;;;;21.00;72.29;99788.72;5049857;28;20403;-72
2022/09/16 05:02:01;;;;;;;7.95;5.82;;;;;;;21.07;72.15;99790.34;5041379;28;20029;-74
2022/09/16 05:04:27;;;;;;;10.00;5.63;;;;;;;21.13;72.01;99787.63;5031051;28;20140;-71
2022/09/16 05:06:52;;;;;;;9.68;5.82;;;;;;;21.18;72.89;99790.16;5047927;28;20455;-71
2022/09/16 05:09:20;;;;;;;8.18;5.55;;;;;;;21.16;72.37;99786.69;5043508;28;20529;-73
2022/09/16 05:11:46;;;;;;;8.18;5.00;;;;;;;21.20;72.26;99784.84;5046011;28;20399;-71
2022/09/16 05:14:17;;;;;;;9.02;5.00;;;;;;;21.20;72.29;99776.97;5041792;28;20032;-72
2022/09/16 05:16:45;;;;;;;8.63;4.70;;;;;;;21.30;71.41;99778.56;5031843;28;20056;-73
2022/09/16 05:19:12;;;;;;;6.30;4.57;;;;;;;21.32;71.79;99772.41;5050248;28;20554;-74
2022/09/16 05:21:38;;;;;;;8.93;5.20;;;;;;;21.39;71.41;99769.66;5050000;28;20029;-72
2022/09/16 05:24:07;;;;;;;11.30;5.05;;;;;;;21.36;71.53;99774.94;5050235;28;20056;-72
2022/09/16 05:26:34;;;;;;;9.15;5.90;;;;;;;21.31;72.15;99770.66;5049490;28;20029;-72
2022/09/16 05:29:03;;;;;;;8.93;6.00;;;;;;;21.32;73.01;99771.50;5050287;28;20029;-72
2022/09/16 05:31:30;;;;;;;8.98;5.32;;;;;;;21.40;73.44;99777.50;5030831;28;20040;-71
2022/09/16 05:33:57;;;;;;;8.13;4.30;;;;;;;21.28;73.01;99751.47;5049930;28;20099;-72
2022/09/16 05:36:23;;;;;;;5.40;4.55;;;;;;;21.48;72.29;99780.84;5049760;28;20036;-73
2022/09/16 05:38:49;;;;;;;9.05;4.75;;;;;;;21.54;71.85;99784.25;5049891;28;20047;-70
2022/09/16 05:41:15;;;;;;;7.03;4.85;;;;;;;21.34;72.18;99746.09;5049770;28;20032;-70
2022/09/16 05:43:41;;;;;;;8.23;4.55;;;;;;;21.32;72.58;99747.88;5049509;28;20027;-72
2022/09/16 05:46:07;;;;;;;11.73;5.20;;;;;;;21.55;72.72;99780.75;5049864;28;20028;-74
2022/09/16 05:48:34;;;;;;;16.83;5.28;;;;;;;21.57;72.23;99790.34;5050177;28;20029;-75
2022/09/16 05:51:02;;;;;;;13.30;5.03;;;;;;;21.64;72.05;99789.31;5049881;28;20036;-71
2022/09/16 05:53:29;;;;;;;9.15;4.95;;;;;;;21.72;70.85;99783.94;5049979;28;20025;-69
2022/09/16 05:56:05;;;;;;;12.30;5.68;;;;;;;21.81;71.18;99786.34;5050038;28;20041;-70
2022/09/16 05:58:32;;;;;;;8.73;4.70;;;;;;;21.76;70.22;99745.31;5049514;28;20090;-72
2022/09/16 06:00:59;;;;;;;8.23;5.07;;;;;;;21.86;70.34;99746.84;5049635;28;20104;-71
2022/09/16 06:03:26;;;;;;;12.32;4.68;;;;;;;22.16;69.57;99764.59;5049950;28;20052;-71
2022/09/16 06:05:52;;;;;;;9.20;4.50;;;;;;;22.28;69.13;99769.59;5049943;28;20111;-70
2022/09/16 06:08:17;;;;;;;8.15;4.50;;;;;;;22.21;68.77;99729.44;5049721;28;20017;-73
2022/09/16 06:10:42;;;;;;;10.07;4.90;;;;;;;22.46;68.81;99761.31;5049511;28;20021;-75
2022/09/16 06:13:08;;;;;;;8.10;4.32;;;;;;;22.47;67.72;99728.00;5047217;28;20398;-71
2022/09/16 06:15:34;;;;;;;7.00;4.63;;;;;;;22.72;67.48;99748.44;5049155;28;20025;-71
2022/09/16 06:18:00;;;;;;;6.40;4.10;;;;;;;22.88;67.02;99746.28;5048838;28;20490;-71
2022/09/16 06:20:26;;;;;;;6.90;4.13;;;;;;;22.89;66.89;99738.38;5049024;28;20036;-70
2022/09/16 06:22:51;;;;;;;8.43;3.90;;;;;;;23.08;65.32;99748.41;5048934;28;20033;-74
2022/09/16 06:25:17;;;;;;;8.25;4.18;;;;;;;23.17;64.70;99749.97;5047376;28;20071;-70
2022/09/16 06:27:43;;;;;;;5.53;3.95;;;;;;;23.26;64.08;99749.72;5046752;28;20465;-73
2022/09/16 06:30:08;;;;;;;8.75;3.72;;;;;;;23.31;64.65;99742.53;5049390;28;20031;-73
2022/09/16 06:32:34;;;;;;;9.43;3.67;;;;;;;23.51;62.75;99735.88;5049558;28;20048;-70
2022/09/16 06:34:59;;;;;;;5.97;3.85;;;;;;;23.68;62.99;99732.75;5049917;28;20055;-73
2022/09/16 06:37:25;;;;;;;8.20;3.90;;;;;;;23.79;62.01;99738.56;5051186;28;20021;-70
2022/09/16 06:39:51;;;;;;;5.25;3.95;;;;;;;23.84;61.64;99728.75;5053219;28;20040;-75
2022/09/16 06:42:16;;;;;;;5.35;3.80;;;;;;;23.91;61.60;99745.25;5053663;28;20059;-76
2022/09/16 06:44:42;;;;;;;6.78;3.75;;;;;;;23.99;60.71;99724.81;5053444;28;20033;-73
2022/09/16 06:47:07;;;;;;;6.38;3.75;;;;;;;24.09;60.17;99730.69;5053115;28;20025;-76
2022/09/16 06:49:33;;;;;;;5.43;3.47;;;;;;;24.10;59.98;99713.06;5052787;28;20033;-70
2022/09/16 06:51:58;;;;;;;8.20;3.60;;;;;;;24.32;59.42;99744.91;5053351;28;20036;-71
2022/09/16 06:54:23;;;;;;;7.22;3.42;;;;;;;24.47;59.12;99747.06;5053371;28;20455;-72
2022/09/16 06:56:49;;;;;;;7.90;3.53;;;;;;;24.54;58.98;99748.59;5053098;28;20475;-70
2022/09/16 06:59:14;;;;;;;6.22;3.53;;;;;;;24.80;57.76;99756.59;5052912;28;20086;-70
2022/09/16 07:01:40;;;;;;;5.28;3.20;;;;;;;24.55;57.71;99701.97;5053278;28;20074;-73
2022/09/16 07:04:12;;;;;;;5.95;3.38;;;;;;;24.87;56.27;99731.72;5052640;28;20116;-72
2022/09/16 07:06:38;;;;;;;7.80;3.50;;;;;;;25.10;56.40;99757.34;5052881;28;20028;-75
2022/09/16 07:09:04;;;;;;;6.95;3.35;;;;;;;25.16;56.41;99757.13;5052803;28;20029;-72
2022/09/16 07:11:30;;;;;;;7.28;3.47;;;;;;;25.17;56.03;99728.91;5052907;28;20078;-72
2022/09/16 07:13:57;;;;;;;5.55;3.05;;;;;;;25.33;54.76;99734.53;5052833;28;20033;-72
2022/09/16 07:16:24;;;;;;;6.10;3.20;;;;;;;25.59;54.11;99760.03;5052146;28;20028;-71
2022/09/16 07:18:54;;;;;;;4.63;2.92;;;;;;;25.68;54.24;99762.34;5052457;28;20029;-73
2022/09/16 07:21:23;;;;;;;9.57;3.20;;;;;;;25.79;54.95;99763.72;5052441;28;20025;-71
2022/09/16 07:23:49;;;;;;;5.60;2.88;;;;;;;25.91;53.87;99757.13;5051757;28;20100;-72
2022/09/16 07:26:20;;;;;;;6.00;3.20;;;;;;;25.99;53.44;99755.03;5051992;28;20108;-74
2022/09/16 07:28:47;;;;;;;6.47;2.88;;;;;;;26.17;52.60;99748.22;5052422;28;20029;-72
2022/09/16 07:31:23;;;;;;;7.53;3.33;;;;;;;26.19;52.66;99746.34;5052366;28;20028;-72
2022/09/16 07:33:50;;;;;;;7.40;3.72;;;;;;;26.25;52.78;99745.25;5045064;28;20067;-74
2022/09/16 07:36:19;;;;;;;24.23;4.95;;;;;;;26.36;52.69;99742.19;5038788;28;20033;-72
2022/09/16 07:38:45;;;;;;;13.95;3.55;;;;;;;26.44;51.81;99745.38;5047382;28;20071;-70
2022/09/16 07:41:17;;;;;;;6.25;2.80;;;;;;;26.57;52.38;99748.41;5051879;28;20041;-70
2022/09/16 07:43:43;;;;;;;6.65;3.05;;;;;;;26.59;51.45;99712.13;5050699;28;20186;-72
2022/09/16 07:46:10;;;;;;;7.90;3.13;;;;;;;26.71;50.85;99721.34;5051535;28;20104;-73
2022/09/16 07:48:36;;;;;;;6.32;2.90;;;;;;;26.98;51.07;99744.94;5051327;28;20491;-70
2022/09/16 07:51:07;;;;;;;5.80;2.95;;;;;;;27.04;50.31;99742.91;5016592;28;20052;-70
2022/09/16 07:53:34;;;;;;;7.63;3.10;;;;;;;27.09;50.47;99732.09;5056233;28;20047;-74
2022/09/16 07:56:03;;;;;;;12.48;3.35;;;;;;;27.26;50.15;99736.66;5047674;28;20139;-70
2022/09/16 07:58:29;;;;;;;8.95;2.88;;;;;;;27.15;49.68;99713.28;5049058;28;20479;-74
2022/09/16 08:00:55;;;;;;;5.40;3.22;;;;;;;27.33;49.42;99724.00;5051261;28;20037;-74
2022/09/16 08:03:21;;;;;;;8.75;3.33;;;;;;;27.37;49.79;99730.91;5051161;28;20044;-73
2022/09/16 08:05:46;;;;;;;8.55;3.10;;;;;;;27.45;49.98;99726.13;5051931;28;20025;-74
2022/09/16 08:08:12;;;;;;;8.07;3.53;;;;;;;27.56;49.11;99720.34;5052020;28;20395;-73
2022/09/16 08:10:37;;;;;;;7.72;2.80;;;;;;;27.68;48.61;99721.59;5051654;28;20036;-73
2022/09/16 08:13:05;;;;;;;5.47;3.15;;;;;;;27.69;48.70;99710.91;5051685;28;20494;-74
2022/09/16 08:15:30;;;;;;;9.00;3.20;;;;;;;27.60;47.83;99684.81;5051568;28;20096;-74
2022/09/16 08:17:56;;;;;;;6.57;2.60;;;;;;;27.64;48.06;99680.22;5066760;28;20116;-74
2022/09/16 08:20:21;;;;;;;6.25;2.85;;;;;;;27.99;48.24;99714.81;5051513;28;20549;-73
2022/09/16 08:22:46;;;;;;;6.75;3.13;;;;;;;27.99;47.85;99718.34;5046147;28;20079;-74
2022/09/16 08:25:12;;;;;;;5.60;2.92;;;;;;;28.17;48.09;99702.50;5051065;28;20056;-69
2022/09/16 08:27:37;;;;;;;9.35;3.10;;;;;;;28.31;47.42;99701.84;5050104;28;20103;-73
2022/09/16 08:30:04;;;;;;;7.65;2.85;;;;;;;28.43;47.22;99711.00;5050671;28;20182;-71
2022/09/16 08:32:30;;;;;;;8.15;2.95;;;;;;;28.48;46.39;99699.19;5051008;28;20047;-74
2022/09/16 08:34:55;;;;;;;7.10;3.00;;;;;;;28.36;46.62;99674.13;5050333;28;20029;-70
2022/09/16 08:37:21;;;;;;;22.75;3.70;;;;;;;28.63;45.95;99684.28;5050545;28;20029;-71
2022/09/16 08:39:47;;;;;;;8.05;3.05;;;;;;;28.75;46.25;99685.50;5050738;28;20060;-72
2022/09/16 08:42:31;;;;;;;5.63;3.08;;;;;;;28.91;45.82;99692.69;5050264;28;20028;-72
2022/09/16 08:45:40;;;;;;;7.53;2.85;;;;;;;29.12;45.46;99693.34;5050681;28;20037;-73
2022/09/16 08:48:24;;;;;;;6.53;3.03;;;;;;;29.34;45.29;99688.63;5008009;28;20046;-74
2022/09/16 08:50:51;;;;;;;6.47;2.78;;;;;;;29.57;43.83;99691.00;5008892;28;20092;-72
2022/09/16 08:53:38;;;;;;;11.10;3.25;;;;;;;29.63;44.67;99688.84;5008947;28;20038;-74
2022/09/16 08:56:12;;;;;;;11.20;3.10;;;;;;;29.79;44.32;99683.53;4992142;28;20033;-70
2022/09/16 08:58:44;;;;;;;7.45;3.08;;;;;;;29.94;43.74;99689.00;5008272;28;20038;-74
2022/09/16 09:01:18;;;;;;;5.60;2.95;;;;;;;30.09;44.11;99690.75;5008337;28;20117;-70
2022/09/16 09:03:46;;;;;;;8.10;2.60;;;;;;;30.24;41.16;99685.53;5008480;28;20030;-72
2022/09/16 09:06:23;;;;;;;6.03;2.90;;;;;;;30.27;42.09;99688.88;5008764;28;20416;-73
2022/09/16 09:09:10;;;;;;;8.45;2.80;;;;;;;30.34;40.92;99684.91;5008754;28;20552;-74
2022/09/16 09:11:47;;;;;;;6.35;2.47;;;;;;;30.47;40.14;99677.06;5009027;28;20046;-69
2022/09/16 09:14:33;;;;;;;10.13;3.15;;;;;;;30.65;39.73;99672.47;5008779;28;20191;-69
2022/09/16 09:17:26;;;;;;;8.95;2.95;;;;;;;30.79;39.33;99676.97;5025174;28;20135;-73
2022/09/16 09:20:00;;;;;;;11.00;2.75;;;;;;;30.98;38.50;99673.22;5008716;28;20558;-74
2022/09/16 09:22:31;;;;;;;8.38;2.80;;;;;;;31.15;38.56;99656.19;4994063;28;20528;-69
2022/09/16 09:25:21;;;;;;;8.18;3.00;;;;;;;31.27;37.61;99652.75;5050982;28;20057;-70
2022/09/16 09:27:58;;;;;;;7.40;2.90;;;;;;;31.38;36.79;99653.88;5050552;28;20108;-69
2022/09/16 09:30:26;;;;;;;8.43;3.03;;;;;;;31.32;37.24;99622.25;5050470;28;20392;-73
2022/09/16 09:33:24;;;;;;;11.85;3.33;;;;;;;31.47;36.79;99645.31;5050440;28;20139;-69
2022/09/16 09:35:58;;;;;;;8.07;2.83;;;;;;;31.62;36.43;99638.97;5049872;28;20083;-73
2022/09/16 09:38:51;;;;;;;8.93;2.78;;;;;;;31.65;36.15;99640.63;5049220;28;20037;-76
2022/09/16 09:41:40;;;;;;;11.63;3.10;;;;;;;31.87;36.65;99629.41;5050497;28;20608;-73
2022/09/16 09:44:24;;;;;;;;;;;;;;;32.01;35.64;99628.50;5050988;28;20406;-72
2022/09/16 09:46:55;;;;;;;8.88;3.35;;;;;;;32.09;35.42;99610.16;5050136;28;19927;-75
2022/09/16 09:49:30;;;;;;;8.38;3.03;;;;;;;32.32;35.30;99621.16;5050287;28;20033;-69
2022/09/16 09:51:59;;;;;;;13.63;2.90;;;;;;;32.52;34.96;99626.97;5050920;28;20041;-69
2022/09/16 09:54:24;;;;;;;;;;;;;;;32.52;34.15;99610.91;5050741;28;20116;-69
2022/09/16 09:56:54;;;;;;;15.18;3.33;;;;;;;32.64;33.73;99617.22;5050500;28;20481;-69
2022/09/16 09:59:41;;;;;;;13.52;3.13;;;;;;;32.78;33.80;99608.31;5050239;28;20025;-71
2022/09/16 10:02:15;;;;;;;9.20;2.85;;;;;;;32.81;33.34;99584.03;5050198;28;20037;-69
2022/09/16 10:04:41;;;;;;;10.38;3.15;;;;;;;33.17;33.08;99601.97;5050084;28;20087;-76
2022/09/16 10:07:07;;;;;;;11.00;3.20;;;;;;;33.34;32.28;99595.41;5050249;28;20033;-73
2022/09/16 10:09:35;;;;;;;11.85;3.20;;;;;;;33.42;31.79;99596.69;5050328;28;20036;-72
2022/09/16 10:12:00;;;;;;;10.70;3.15;;;;;;;33.33;31.90;99580.31;5050019;28;20402;-70
2022/09/16 10:14:31;;;;;;;10.65;3.00;;;;;;;33.39;31.34;99582.53;5054590;28;20041;-72
2022/09/16 10:17:00;;;;;;;12.15;3.22;;;;;;;33.37;31.59;99570.25;5035346;28;20186;-72
2022/09/16 10:19:28;;;;;;;18.75;4.30;;;;;;;33.68;31.61;99592.09;5054329;28;20394;-72
2022/09/16 10:22:18;;;;;;;9.43;3.10;;;;;;;33.74;31.02;99596.97;5054269;28;20033;-74
2022/09/16 10:24:53;;;;;;;10.27;2.88;;;;;;;33.76;31.18;99602.22;5053857;28;20057;-71
2022/09/16 10:27:25;;;;;;;9.65;2.80;;;;;;;33.75;30.71;99592.47;5053702;28;20043;-75
2022/09/16 10:30:14;;;;;;;12.15;3.22;;;;;;;33.78;30.84;99577.03;5054170;28;20444;-69
2022/09/16 10:33:03;;;;;;;12.18;2.67;;;;;;;33.94;30.49;99592.84;5053869;28;20158;-72
2022/09/16 10:35:31;;;;;;;8.48;2.63;;;;;;;33.77;29.71;99585.19;5053570;28;20025;-73
2022/09/16 10:38:01;;;;;;;13.93;2.92;;;;;;;33.81;28.80;99586.66;5053992;28;20021;-73
2022/09/16 10:40:27;;;;;;;11.13;2.60;;;;;;;33.84;29.31;99587.31;5053647;28;20502;-74
2022/09/16 10:43:02;;;;;;;11.48;2.78;;;;;;;33.82;29.35;99583.91;5054108;28;20056;-69
2022/09/16 10:45:30;;;;;;;10.63;2.63;;;;;;;33.75;28.68;99571.94;5053677;28;20024;-74
2022/09/16 10:48:03;;;;;;;11.38;2.65;;;;;;;33.62;27.83;99555.94;5051600;28;20514;-70
2022/09/16 10:50:29;;;;;;;8.63;2.40;;;;;;;33.85;27.62;99564.09;5048944;28;20414;-72
2022/09/16 10:52:54;;;;;;;12.93;2.80;;;;;;;33.90;27.76;99564.59;5047005;28;20053;-74
2022/09/16 10:55:27;;;;;;;10.95;2.55;;;;;;;33.99;26.65;99557.69;5042039;28;20502;-71
2022/09/16 10:58:16;;;;;;;8.73;2.33;;;;;;;34.07;26.67;99562.47;5033721;28;20060;-75
2022/09/16 11:00:57;;;;;;;11.48;2.65;;;;;;;34.06;26.82;99556.25;5035887;28;20025;-71
2022/09/16 11:03:46;;;;;;;10.90;2.90;;;;;;;34.06;27.25;99558.06;5035328;28;20026;-73
2022/09/16 11:06:53;;;;;;;13.70;3.22;;;;;;;34.06;26.71;99542.00;5052292;28;20490;-69
2022/09/16 11:09:42;;;;;;;13.35;2.92;;;;;;;34.20;29.92;99547.16;4988704;28;20034;-73
2022/09/16 11:12:32;;;;;;;12.15;3.88;;;;;;;34.28;26.62;99549.25;4990658;28;20422;-74
2022/09/16 11:15:29;;;;;;;11.60;2.85;;;;;;;34.35;26.42;99548.69;4990064;28;20042;-78
2022/09/16 11:18:04;;;;;;;11.90;3.13;;;;;;;34.46;26.97;99536.28;4913703;29;20078;-75
2022/09/16 11:21:07;;;;;;;11.50;2.88;;;;;;;34.51;26.70;99534.94;4911167;29;20040;-73
2022/09/16 11:24:02;;;;;;;10.82;3.10;;;;;;;34.58;26.21;99521.94;4913011;29;20052;-72
2022/09/16 11:27:02;;;;;;;12.57;3.78;;;;;;;34.67;25.82;99523.03;4913223;29;20055;-72
2022/09/16 11:29:55;;;;;;;9.23;2.72;;;;;;;34.63;25.69;99524.22;4913585;29;20044;-74
2022/09/16 11:32:34;;;;;;;10.07;3.00;;;;;;;34.63;26.12;99521.53;4912972;29;20128;-74
2022/09/16 11:34:59;;;;;;;;;;;;;;;34.66;25.62;99516.78;4927940;29;20460;-70
2022/09/16 11:37:27;;;;;;;11.82;2.70;;;;;;;34.54;25.60;99490.13;4913882;29;20025;-70
2022/09/16 11:40:17;;;;;;;15.27;3.20;;;;;;;34.88;25.29;99512.44;4910941;29;20040;-73
2022/09/16 11:43:06;;;;;;;16.67;3.45;;;;;;;34.74;25.61;99488.53;4912208;29;20858;-71
2022/09/16 11:45:56;;;;;;;11.80;3.47;;;;;;;34.94;25.53;99511.06;4935728;28;20147;-70
2022/09/16 11:48:42;;;;;;;13.57;3.40;;;;;;;35.12;27.08;99503.38;4962312;28;20102;-76
2022/09/16 11:51:33;;;;;;;8.85;3.03;;;;;;;35.05;25.74;99488.75;4962074;28;20047;-71
2022/09/16 11:54:16;;;;;;;13.10;3.47;;;;;;;35.05;25.80;99486.09;4978182;28;20416;-70
2022/09/16 11:56:55;;;;;;;15.02;4.05;;;;;;;35.06;25.35;99477.06;5050332;28;20025;-72